createdAt,value
2022-11-14T00:00:54.759Z,50.80
2022-11-14T00:03:21.397Z,52.30
2022-11-14T00:05:48.159Z,53.10
2022-11-14T00:08:21.541Z,52.58
2022-11-14T00:10:49.830Z,51.30
2022-11-14T00:13:17.800Z,53.20
2022-11-14T00:15:45.288Z,52.80
2022-11-14T00:18:11.913Z,54.05
2022-11-14T00:20:38.499Z,52.72
2022-11-14T00:23:05.107Z,52.72
2022-11-14T00:25:32.557Z,52.72
2022-11-14T00:27:59.626Z,53.10
2022-11-14T00:30:27.337Z,53.50
2022-11-14T00:32:53.954Z,52.38
2022-11-14T00:35:20.659Z,53.42
2022-11-14T00:37:47.252Z,52.45
2022-11-14T00:40:14.756Z,52.63
2022-11-14T00:42:41.434Z,54.13
2022-11-14T00:45:08.639Z,54.92
2022-11-14T00:47:35.251Z,53.40
2022-11-14T00:50:02.009Z,53.03
2022-11-14T00:52:28.663Z,51.15
2022-11-14T00:54:55.310Z,54.45
2022-11-14T00:57:21.918Z,56.78
2022-11-14T00:59:48.527Z,55.50
2022-11-14T01:02:15.124Z,53.72
2022-11-14T01:04:41.703Z,50.80
2022-11-14T01:07:08.322Z,52.00
2022-11-14T01:09:34.998Z,53.58
2022-11-14T01:12:01.632Z,52.00
2022-11-14T01:14:28.226Z,54.28
2022-11-14T01:16:54.822Z,52.97
2022-11-14T01:19:21.431Z,54.25
2022-11-14T01:21:48.058Z,56.40
2022-11-14T01:24:14.674Z,54.10
2022-11-14T01:26:41.262Z,54.15
2022-11-14T01:29:07.870Z,54.83
2022-11-14T01:31:34.514Z,56.20
2022-11-14T01:34:01.238Z,58.63
2022-11-14T01:36:27.899Z,56.63
2022-11-14T01:38:54.896Z,55.53
2022-11-14T01:41:22.144Z,56.83
2022-11-14T01:43:49.023Z,56.90
2022-11-14T01:46:26.332Z,57.20
2022-11-14T01:49:01.948Z,54.25
2022-11-14T01:51:41.356Z,55.78
2022-11-14T01:54:13.316Z,56.75
2022-11-14T01:56:51.693Z,56.80
2022-11-14T01:59:22.625Z,54.50
2022-11-14T02:01:51.959Z,57.30
2022-11-14T02:04:29.781Z,56.08
2022-11-14T02:07:01.019Z,54.85
2022-11-14T02:09:30.768Z,52.90
2022-11-14T02:12:00.746Z,55.15
2022-11-14T02:14:29.133Z,50.20
2022-11-14T02:17:27.311Z,53.10
2022-11-14T02:19:48.893Z,52.45
2022-11-14T02:22:15.611Z,52.78
2022-11-14T02:24:43.785Z,50.72
2022-11-14T02:27:11.658Z,53.35
2022-11-14T02:29:38.325Z,53.22
2022-11-14T02:32:10.326Z,51.75
2022-11-14T02:34:37.520Z,54.38
2022-11-14T02:37:04.403Z,52.58
2022-11-14T02:39:31.081Z,52.03
2022-11-14T02:41:57.845Z,53.90
2022-11-14T02:44:24.466Z,53.53
2022-11-14T02:46:51.059Z,52.13
2022-11-14T02:49:17.769Z,52.63
2022-11-14T02:51:44.404Z,52.03
2022-11-14T02:54:10.991Z,52.10
2022-11-14T02:56:37.641Z,54.05
2022-11-14T02:59:04.271Z,53.53
2022-11-14T03:01:30.918Z,53.22
2022-11-14T03:03:57.583Z,51.72
2022-11-14T03:06:24.175Z,51.97
2022-11-14T03:08:50.862Z,51.50
2022-11-14T03:11:17.522Z,51.13
2022-11-14T03:13:44.143Z,52.30
2022-11-14T03:16:12.644Z,54.95
2022-11-14T03:18:39.224Z,55.90
2022-11-14T03:21:15.127Z,53.70
2022-11-14T03:23:42.107Z,55.88
2022-11-14T03:26:10.379Z,52.25
2022-11-14T03:28:38.476Z,52.63
2022-11-14T03:31:06.210Z,56.45
2022-11-14T03:33:33.540Z,55.15
2022-11-14T03:36:00.267Z,56.25
2022-11-14T03:38:27.083Z,55.17
2022-11-14T03:40:54.268Z,52.33
2022-11-14T03:43:21.822Z,56.15
2022-11-14T03:45:48.525Z,53.05
2022-11-14T03:48:15.607Z,54.53
2022-11-14T03:50:43.317Z,53.72
2022-11-14T03:53:11.298Z,54.70
2022-11-14T03:55:38.920Z,55.60
2022-11-14T03:58:05.573Z,53.97
2022-11-14T04:00:32.309Z,56.15
2022-11-14T04:02:59.003Z,55.15
2022-11-14T04:05:25.788Z,54.75
2022-11-14T04:07:52.430Z,56.45
2022-11-14T04:10:19.324Z,56.30
2022-11-14T04:12:50.056Z,55.53
2022-11-14T04:15:17.503Z,54.17
2022-11-14T04:17:44.906Z,57.47
2022-11-14T04:20:12.416Z,56.50
2022-11-14T04:22:39.564Z,56.28
2022-11-14T04:25:07.434Z,55.63
2022-11-14T04:27:34.411Z,54.85
2022-11-14T04:30:01.008Z,55.40
2022-11-14T04:32:27.725Z,55.47
2022-11-14T04:34:54.393Z,55.58
2022-11-14T04:37:20.980Z,55.10
2022-11-14T04:39:47.583Z,56.50
2022-11-14T04:42:14.367Z,55.88
2022-11-14T04:44:41.014Z,55.28
2022-11-14T04:47:07.937Z,55.05
2022-11-14T04:49:34.607Z,56.15
2022-11-14T04:52:01.383Z,55.67
2022-11-14T04:54:28.006Z,53.53
2022-11-14T04:56:54.606Z,55.15
2022-11-14T04:59:21.413Z,57.08
2022-11-14T05:01:48.188Z,57.95
2022-11-14T05:04:15.151Z,55.33
2022-11-14T05:06:41.836Z,57.60
2022-11-14T05:09:08.514Z,54.90
2022-11-14T05:11:35.130Z,56.67
2022-11-14T05:14:01.767Z,56.85
2022-11-14T05:16:28.489Z,55.38
2022-11-14T05:18:55.170Z,59.67
2022-11-14T05:21:21.804Z,57.60
2022-11-14T05:23:48.423Z,57.80
2022-11-14T05:26:16.749Z,55.60
2022-11-14T05:28:43.437Z,60.78
2022-11-14T05:31:17.971Z,58.40
2022-11-14T05:33:45.829Z,54.13
2022-11-14T05:36:17.136Z,56.00
2022-11-14T05:38:44.539Z,56.38
2022-11-14T05:41:13.547Z,56.70
2022-11-14T05:43:40.998Z,55.03
2022-11-14T05:46:11.772Z,54.72
2022-11-14T05:48:38.947Z,56.75
2022-11-14T05:51:07.352Z,55.40
2022-11-14T05:53:34.641Z,56.00
2022-11-14T05:56:02.651Z,52.00
2022-11-14T05:58:29.534Z,55.33
2022-11-14T06:01:14.214Z,55.65
2022-11-14T06:03:43.095Z,54.38
2022-11-14T06:06:12.476Z,54.22
2022-11-14T06:08:39.530Z,54.58
2022-11-14T06:11:25.734Z,50.83
2022-11-14T06:13:52.390Z,53.28
2022-11-14T06:16:20.158Z,50.92
2022-11-14T06:18:47.385Z,48.55
2022-11-14T06:21:16.842Z,50.35
2022-11-14T06:23:43.928Z,53.45
2022-11-14T06:26:30.250Z,53.50
2022-11-14T06:28:57.595Z,53.40
2022-11-14T06:31:25.049Z,53.30
2022-11-14T06:33:52.185Z,53.28
2022-11-14T06:36:19.412Z,52.00
2022-11-14T06:38:46.174Z,53.25
2022-11-14T06:41:15.668Z,52.20
2022-11-14T06:43:44.656Z,51.25
2022-11-14T06:46:14.386Z,53.60
2022-11-14T06:48:41.721Z,51.72
2022-11-14T06:51:08.481Z,49.10
2022-11-14T06:53:36.506Z,49.33
2022-11-14T06:56:14.815Z,49.70
2022-11-14T06:58:44.588Z,49.45
2022-11-14T07:01:14.252Z,48.60
2022-11-14T07:03:41.840Z,50.15
2022-11-14T07:06:13.586Z,47.45
2022-11-14T07:08:40.481Z,49.90
2022-11-14T07:11:09.909Z,51.35
2022-11-14T07:13:37.767Z,50.50
2022-11-14T07:16:05.369Z,50.90
2022-11-14T07:18:33.566Z,49.78
2022-11-14T07:21:06.015Z,52.47
2022-11-14T07:23:34.310Z,50.47
2022-11-14T07:26:08.294Z,50.47
2022-11-14T07:28:41.366Z,51.47
2022-11-14T07:31:12.389Z,50.80
2022-11-14T07:33:40.040Z,50.40
2022-11-14T07:36:07.415Z,50.13
2022-11-14T07:38:35.789Z,48.65
2022-11-14T07:41:11.163Z,46.95
2022-11-14T07:43:37.984Z,48.63
2022-11-14T07:46:10.563Z,47.47
2022-11-14T07:48:37.480Z,45.17
2022-11-14T07:51:06.776Z,43.60
2022-11-14T07:53:33.987Z,44.07
2022-11-14T07:56:12.985Z,46.75
2022-11-14T07:58:41.395Z,45.80
2022-11-14T08:01:10.493Z,46.85
2022-11-14T08:03:41.040Z,47.53
2022-11-14T08:06:14.331Z,45.65
2022-11-14T08:08:41.148Z,46.80
2022-11-14T08:11:08.317Z,45.90
2022-11-14T08:13:35.119Z,45.67
2022-11-14T08:16:13.403Z,45.88
2022-11-14T08:18:41.503Z,46.95
2022-11-14T08:21:08.367Z,45.25
2022-11-14T08:23:35.044Z,45.95
2022-11-14T08:26:01.823Z,40.67
2022-11-14T08:28:28.842Z,42.90
2022-11-14T08:31:03.715Z,40.10
2022-11-14T08:33:31.179Z,42.90
2022-11-14T08:36:02.627Z,39.92
2022-11-14T08:38:30.459Z,42.15
2022-11-14T08:41:03.982Z,41.80
2022-11-14T08:43:31.799Z,42.33
2022-11-14T08:46:03.254Z,42.38
2022-11-14T08:48:31.743Z,42.40
2022-11-14T08:51:03.694Z,43.40
2022-11-14T08:53:30.999Z,43.58
2022-11-14T08:55:57.666Z,42.47
2022-11-14T08:58:24.358Z,43.58
2022-11-14T09:00:51.994Z,41.00
2022-11-14T09:03:19.211Z,40.13
2022-11-14T09:05:51.772Z,42.88
2022-11-14T09:08:18.460Z,39.60
2022-11-14T09:10:45.334Z,38.92
2022-11-14T09:13:11.980Z,41.35
2022-11-14T09:15:38.627Z,40.45
2022-11-14T09:18:05.315Z,40.80
2022-11-14T09:20:36.161Z,41.03
2022-11-14T09:23:05.907Z,38.92
2022-11-14T09:25:32.558Z,38.03
2022-11-14T09:28:04.372Z,39.30
2022-11-14T09:30:31.088Z,39.80
2022-11-14T09:33:06.922Z,39.15
2022-11-14T09:35:37.857Z,39.42
2022-11-14T09:38:07.358Z,38.38
2022-11-14T09:40:57.696Z,38.78
2022-11-14T09:45:54.749Z,38.75
2022-11-14T09:48:30.017Z,37.42
2022-11-14T09:51:16.032Z,39.33
2022-11-14T09:53:47.540Z,39.67
2022-11-14T09:56:19.457Z,39.58
2022-11-14T09:58:46.093Z,38.47
2022-11-14T10:01:40.610Z,38.38
2022-11-14T10:04:31.950Z,37.13
2022-11-14T10:07:25.729Z,36.45
2022-11-14T10:10:22.055Z,36.55
2022-11-14T10:13:14.701Z,38.00
2022-11-14T10:16:04.654Z,36.95
2022-11-14T10:18:44.717Z,36.70
2022-11-14T10:21:46.048Z,36.55
2022-11-14T10:24:33.319Z,36.05
2022-11-14T10:27:05.682Z,37.05
2022-11-14T10:29:44.816Z,36.20
2022-11-14T10:32:11.463Z,34.10
2022-11-14T10:34:54.299Z,35.65
2022-11-14T10:37:33.362Z,34.70
2022-11-14T10:40:17.718Z,37.40
2022-11-14T10:42:49.063Z,36.15
2022-11-14T10:45:44.377Z,38.42
2022-11-14T10:48:35.429Z,37.25
2022-11-14T10:51:24.249Z,35.00
2022-11-14T10:54:12.409Z,36.33
2022-11-14T10:56:49.545Z,33.80
2022-11-14T10:59:16.360Z,34.70
2022-11-14T11:01:45.063Z,32.72
2022-11-14T11:04:13.458Z,34.28
2022-11-14T11:06:40.336Z,32.72
2022-11-14T11:09:42.110Z,36.13
2022-11-14T11:12:17.925Z,33.63
2022-11-14T11:15:18.420Z,34.50
2022-11-14T11:17:58.377Z,33.70
2022-11-14T11:20:32.706Z,32.42
2022-11-14T11:23:15.881Z,34.17
2022-11-14T11:25:42.644Z,31.90
2022-11-14T11:28:21.073Z,32.30
2022-11-14T11:31:02.127Z,30.52
2022-11-14T11:33:39.578Z,30.63
2022-11-14T11:36:10.869Z,31.20
2022-11-14T11:38:37.877Z,32.05
2022-11-14T11:42:00.880Z,29.65
2022-11-14T11:44:12.902Z,31.60
2022-11-14T11:47:02.343Z,28.15
2022-11-14T11:49:40.027Z,29.73
2022-11-14T11:52:31.733Z,28.83
2022-11-14T11:55:20.659Z,27.92
2022-11-14T11:58:01.648Z,28.92
2022-11-14T12:00:28.816Z,28.67
2022-11-14T12:02:55.890Z,28.67
2022-11-14T12:05:41.038Z,28.08
2022-11-14T12:08:30.495Z,29.73
2022-11-14T12:10:58.289Z,28.00
2022-11-14T12:13:50.473Z,27.77
2022-11-14T12:16:26.469Z,29.60
2022-11-14T12:19:05.090Z,29.02
2022-11-14T12:21:46.915Z,28.27
2022-11-14T12:24:30.550Z,29.55
2022-11-14T12:27:40.107Z,28.10
2022-11-14T12:30:24.061Z,28.38
2022-11-14T12:33:12.764Z,27.80
2022-11-14T12:35:53.810Z,27.73
2022-11-14T12:38:22.608Z,27.98
2022-11-14T12:40:55.646Z,28.13
2022-11-14T12:43:37.839Z,27.45
2022-11-14T12:46:11.590Z,27.00
2022-11-14T12:48:47.913Z,26.45
2022-11-14T12:51:29.694Z,27.42
2022-11-14T12:53:57.970Z,26.05
2022-11-14T12:56:30.796Z,26.77
2022-11-14T12:59:20.745Z,26.73
2022-11-14T13:01:59.453Z,26.65
2022-11-14T13:05:05.339Z,24.85
2022-11-14T13:08:09.897Z,25.38
2022-11-14T13:10:40.837Z,25.98
2022-11-14T13:13:31.720Z,25.05
2022-11-14T13:16:19.211Z,25.08
2022-11-14T13:19:14.873Z,27.08
2022-11-14T13:22:12.402Z,25.63
2022-11-14T13:25:04.043Z,26.58
2022-11-14T13:28:05.820Z,24.80
2022-11-14T13:31:03.204Z,25.55
2022-11-14T13:33:49.544Z,25.48
2022-11-14T13:36:40.202Z,24.60
2022-11-14T13:39:23.749Z,24.50
2022-11-14T13:42:26.003Z,25.27
2022-11-14T13:45:13.943Z,25.40
2022-11-14T13:48:14.859Z,26.50
2022-11-14T13:50:43.395Z,25.83
2022-11-14T13:53:19.966Z,24.27
2022-11-14T13:55:55.855Z,24.75
2022-11-14T13:58:31.729Z,25.08
2022-11-14T14:01:23.251Z,24.95
2022-11-14T14:04:20.428Z,25.27
2022-11-14T14:07:16.017Z,25.30
2022-11-14T14:10:20.473Z,24.52
2022-11-14T14:13:20.225Z,23.58
2022-11-14T14:16:05.794Z,23.55
2022-11-14T14:19:06.758Z,23.50
2022-11-14T14:28:15.486Z,23.10
2022-11-14T14:31:09.487Z,23.90
2022-11-14T14:33:45.209Z,22.35
2022-11-14T14:36:25.547Z,23.67
2022-11-14T14:41:36.100Z,23.67
2022-11-14T14:44:02.925Z,22.75
2022-11-14T14:46:31.969Z,24.38
2022-11-14T14:49:02.598Z,22.70
2022-11-14T14:51:34.883Z,23.52
2022-11-14T14:54:02.284Z,24.15
2022-11-14T14:56:29.060Z,24.27
2022-11-14T14:58:56.188Z,25.15
2022-11-14T15:01:31.126Z,22.23
2022-11-14T15:04:08.807Z,25.45
2022-11-14T15:06:37.687Z,22.67
2022-11-14T15:09:17.810Z,24.23
2022-11-14T15:11:47.724Z,24.42
2022-11-14T15:14:18.093Z,25.00
2022-11-14T15:16:49.861Z,24.58
2022-11-14T15:19:23.467Z,25.83
2022-11-14T15:22:15.882Z,25.55
2022-11-14T15:24:42.616Z,26.52
2022-11-14T15:27:14.549Z,25.33
2022-11-14T15:29:56.837Z,27.33
2022-11-14T15:32:25.378Z,28.30
2022-11-14T15:35:25.536Z,28.35
2022-11-14T15:38:28.850Z,27.45
2022-11-14T15:41:23.547Z,26.75
2022-11-14T15:43:52.997Z,28.75
2022-11-14T15:46:27.083Z,28.83
2022-11-14T15:48:54.189Z,28.88
2022-11-14T15:51:41.388Z,26.25
2022-11-14T15:54:26.128Z,27.17
2022-11-14T15:56:55.460Z,28.35
2022-11-14T15:59:23.036Z,26.37
2022-11-14T16:01:52.561Z,27.92
2022-11-14T16:04:26.060Z,28.77
2022-11-14T16:06:52.754Z,28.05
2022-11-14T16:09:21.005Z,28.42
2022-11-14T16:11:49.143Z,28.52
2022-11-14T16:14:15.865Z,27.15
2022-11-14T16:16:42.475Z,28.60
2022-11-14T16:19:14.060Z,29.35
2022-11-14T16:21:41.529Z,27.38
2022-11-14T16:24:17.882Z,29.27
2022-11-14T16:26:45.197Z,27.70
2022-11-14T16:29:12.029Z,28.33
2022-11-14T16:31:39.141Z,27.05
2022-11-14T16:34:06.631Z,29.42
2022-11-14T16:36:33.346Z,31.00
2022-11-14T16:39:03.016Z,29.20
2022-11-14T16:41:29.797Z,29.17
2022-11-14T16:43:57.502Z,30.15
2022-11-14T16:46:24.535Z,30.40
2022-11-14T16:48:51.372Z,29.45
2022-11-14T16:51:46.278Z,31.08
2022-11-14T16:54:04.676Z,31.10
2022-11-14T16:56:31.411Z,30.80
2022-11-14T16:58:58.073Z,32.13
2022-11-14T17:01:24.817Z,29.92
2022-11-14T17:03:52.251Z,30.25
2022-11-14T17:06:19.043Z,31.13
2022-11-14T17:08:45.690Z,29.95
2022-11-14T17:11:12.346Z,29.58
2022-11-14T17:13:39.078Z,30.42
2022-11-14T17:16:06.082Z,30.42
2022-11-14T17:18:38.425Z,30.55
2022-11-14T17:21:06.732Z,27.92
2022-11-14T17:23:33.388Z,30.20
2022-11-14T17:26:09.205Z,30.60
2022-11-14T17:28:36.169Z,30.58
2022-11-14T17:31:09.187Z,28.52
2022-11-14T17:33:36.730Z,28.90
2022-11-14T17:36:07.538Z,30.35
2022-11-14T17:38:35.538Z,31.15
2022-11-14T17:41:05.733Z,32.42
2022-11-14T17:46:12.668Z,29.75
2022-11-14T17:48:42.240Z,31.27
2022-11-14T17:51:15.454Z,28.88
2022-11-14T17:53:42.806Z,30.52
2022-11-14T17:56:15.435Z,29.25
2022-11-14T17:58:42.199Z,29.88
2022-11-14T18:01:10.437Z,30.67
2022-11-14T18:03:37.122Z,31.45
2022-11-14T18:06:07.412Z,30.42
2022-11-14T18:08:34.533Z,30.42
2022-11-14T18:11:07.537Z,29.25
2022-11-14T18:13:34.746Z,29.25
2022-11-14T18:16:07.934Z,29.65
2022-11-14T18:18:36.374Z,29.83
2022-11-14T18:21:12.947Z,30.80
2022-11-14T18:23:39.667Z,30.60
2022-11-14T18:26:11.436Z,30.23
2022-11-14T18:28:38.588Z,32.50
2022-11-14T18:31:07.418Z,30.52
2022-11-14T18:33:35.817Z,29.25
2022-11-14T18:36:04.139Z,30.55
2022-11-14T18:38:33.178Z,30.83
2022-11-14T18:41:01.250Z,29.67
2022-11-14T18:43:31.994Z,29.73
2022-11-14T18:46:13.223Z,31.27
2022-11-14T18:48:41.111Z,29.65
2022-11-14T18:51:11.988Z,30.35
2022-11-14T18:53:39.008Z,30.00
2022-11-14T18:56:11.715Z,31.65
2022-11-14T18:58:42.240Z,31.27
2022-11-14T19:01:11.074Z,32.85
2022-11-14T19:03:38.212Z,31.85
2022-11-14T19:06:07.048Z,33.75
2022-11-14T19:08:33.888Z,33.00
2022-11-14T19:11:06.364Z,31.92
2022-11-14T19:13:33.419Z,30.05
2022-11-14T19:16:04.697Z,29.05
2022-11-14T19:18:31.917Z,31.00
2022-11-14T19:21:03.217Z,28.42
2022-11-14T19:23:30.132Z,31.33
2022-11-14T19:26:01.384Z,29.55
2022-11-14T19:28:31.800Z,29.88
2022-11-14T19:31:02.696Z,31.65
2022-11-14T19:33:29.601Z,30.88
2022-11-14T19:35:56.628Z,32.30
2022-11-14T19:38:23.408Z,32.55
2022-11-14T19:40:53.079Z,32.47
2022-11-14T19:43:28.121Z,32.65
2022-11-14T19:45:58.191Z,31.30
2022-11-14T19:48:25.498Z,33.30
2022-11-14T19:51:05.977Z,33.70
2022-11-14T19:53:36.479Z,33.30
2022-11-14T19:56:08.617Z,32.90
2022-11-14T19:58:37.142Z,30.10
2022-11-14T20:01:11.830Z,33.88
2022-11-14T20:03:39.063Z,35.95
2022-11-14T20:06:15.576Z,35.88
2022-11-14T20:08:42.420Z,35.22
2022-11-14T20:11:09.264Z,37.42
2022-11-14T20:13:42.051Z,34.95
2022-11-14T20:16:16.785Z,45.40
2022-11-14T20:18:57.510Z,32.80
2022-11-14T20:21:27.547Z,30.25
2022-11-14T20:23:54.226Z,30.65
2022-11-14T20:26:21.669Z,33.33
2022-11-14T20:28:51.933Z,31.08
2022-11-14T20:31:24.634Z,33.28
2022-11-14T20:33:53.005Z,31.20
2022-11-14T20:36:22.209Z,34.30
2022-11-14T20:38:49.372Z,34.30
2022-11-14T20:41:16.635Z,34.13
2022-11-14T20:43:43.815Z,32.53
2022-11-14T20:46:17.180Z,36.13
2022-11-14T20:48:44.870Z,35.05
2022-11-14T20:51:14.346Z,35.33
2022-11-14T20:53:41.752Z,34.10
2022-11-14T20:56:09.722Z,33.20
2022-11-14T20:58:36.442Z,33.42
2022-11-14T21:01:03.507Z,33.90
2022-11-14T21:03:30.411Z,35.63
2022-11-14T21:05:57.689Z,37.00
2022-11-14T21:08:24.300Z,34.15
2022-11-14T21:10:57.226Z,36.75
2022-11-14T21:13:42.506Z,35.03
2022-11-14T21:16:12.099Z,36.50
2022-11-14T21:18:43.891Z,38.35
2022-11-14T21:21:16.352Z,34.50
2022-11-14T21:23:44.334Z,37.80
2022-11-14T21:26:21.284Z,35.55
2022-11-14T21:28:51.654Z,39.95
2022-11-14T21:31:21.312Z,37.15
2022-11-14T21:33:49.527Z,35.90
2022-11-14T21:39:04.862Z,36.25
2022-11-14T21:41:32.424Z,36.35
2022-11-14T21:44:03.359Z,35.13
2022-11-14T21:46:30.254Z,37.67
2022-11-14T21:48:57.676Z,39.15
2022-11-14T21:51:27.004Z,37.17
2022-11-14T21:53:56.286Z,37.13
2022-11-14T21:56:28.539Z,39.07
2022-11-14T21:59:12.603Z,35.78
2022-11-14T22:02:08.904Z,36.17
2022-11-14T22:04:36.426Z,38.05
2022-11-14T22:07:06.548Z,40.03
2022-11-14T22:09:34.356Z,40.83
2022-11-14T22:12:01.609Z,37.40
2022-11-14T22:14:29.341Z,40.13
2022-11-14T22:16:56.483Z,38.90
2022-11-14T22:19:23.384Z,39.47
2022-11-14T22:21:50.030Z,41.03
2022-11-14T22:24:16.650Z,40.15
2022-11-14T22:26:43.274Z,38.00
2022-11-14T22:29:09.905Z,38.50
2022-11-14T22:31:37.907Z,38.60
2022-11-14T22:34:05.135Z,36.22
2022-11-14T22:36:32.081Z,39.42
2022-11-14T22:38:58.781Z,40.38
2022-11-14T22:41:33.005Z,37.42
2022-11-14T22:44:00.772Z,39.25
2022-11-14T22:46:27.878Z,38.35
2022-11-14T22:48:54.922Z,38.47
2022-11-14T22:51:26.071Z,37.08
2022-11-14T22:53:54.745Z,36.78
2022-11-14T22:56:25.064Z,34.70
2022-11-14T22:58:51.937Z,36.63
2022-11-14T23:01:27.615Z,36.10
2022-11-14T23:03:56.980Z,37.75
2022-11-14T23:06:24.548Z,37.35
2022-11-14T23:08:51.554Z,37.63
2022-11-14T23:11:21.275Z,37.88
2022-11-14T23:13:50.513Z,37.83
2022-11-14T23:16:20.556Z,39.23
2022-11-14T23:18:48.405Z,40.42
2022-11-14T23:21:20.721Z,37.75
2022-11-14T23:23:52.815Z,37.67
2022-11-14T23:26:19.558Z,36.85
2022-11-14T23:28:46.178Z,36.55
2022-11-14T23:31:13.107Z,37.08
2022-11-14T23:33:39.744Z,36.25
2022-11-14T23:36:06.423Z,38.65
2022-11-14T23:38:33.059Z,36.30
2022-11-14T23:41:01.390Z,37.97
2022-11-14T23:43:29.495Z,36.13
2022-11-14T23:45:56.931Z,36.80
2022-11-14T23:48:24.223Z,36.00
2022-11-14T23:50:52.246Z,34.47
2022-11-14T23:53:19.560Z,34.35
2022-11-14T23:56:00.239Z,37.00
2022-11-14T23:58:28.428Z,35.08
